createdAt,value
2019-02-12T00:00:47.365Z,0.40
2019-02-12T00:03:13.599Z,0.60
2019-02-12T00:05:39.858Z,0.10
2019-02-12T00:08:06.106Z,0.30
2019-02-12T00:10:32.349Z,0.30
2019-02-12T00:12:58.589Z,0.30
2019-02-12T00:15:24.845Z,0.20
2019-02-12T00:17:51.076Z,0.40
2019-02-12T00:20:17.319Z,0.37
2019-02-12T00:22:43.554Z,0.20
2019-02-12T00:25:09.796Z,0.50
2019-02-12T00:27:36.043Z,0.10
2019-02-12T00:30:43.596Z,0.40
2019-02-12T00:33:09.836Z,0.20
2019-02-12T00:35:36.082Z,0.30
2019-02-12T00:38:02.316Z,0.30
2019-02-12T00:40:28.564Z,0.10
2019-02-12T00:42:54.802Z,0.20
2019-02-12T00:45:21.046Z,0.37
2019-02-12T00:47:47.287Z,0.57
2019-02-12T00:50:13.525Z,0.50
2019-02-12T00:52:39.964Z,0.40
2019-02-12T00:55:47.505Z,0.13
2019-02-12T00:58:13.741Z,0.30
2019-02-12T01:00:39.985Z,0.70
2019-02-12T01:03:06.225Z,0.30
2019-02-12T01:05:32.475Z,0.27
2019-02-12T01:07:58.704Z,0.20
2019-02-12T01:10:24.960Z,0.40
2019-02-12T01:12:51.195Z,0.30
2019-02-12T01:15:17.587Z,0.30
2019-02-12T01:17:43.816Z,0.47
2019-02-12T01:20:51.368Z,0.30
2019-02-12T01:23:17.600Z,0.47
2019-02-12T01:25:43.853Z,0.27
2019-02-12T01:28:10.088Z,0.30
2019-02-12T01:30:36.328Z,0.30
2019-02-12T01:33:02.568Z,0.27
2019-02-12T01:35:28.808Z,0.30
2019-02-12T01:37:55.058Z,0.30
2019-02-12T01:40:21.292Z,0.60
2019-02-12T01:42:47.542Z,0.40
2019-02-12T01:45:13.778Z,0.30
2019-02-12T01:47:40.024Z,0.40
2019-02-12T01:50:47.552Z,0.20
2019-02-12T01:53:13.805Z,0.33
2019-02-12T01:55:59.790Z,0.40
2019-02-12T01:58:26.045Z,0.70
2019-02-12T02:00:52.296Z,0.90
2019-02-12T02:03:18.519Z,0.33
2019-02-12T02:05:44.749Z,0.33
2019-02-12T02:08:10.993Z,0.43
2019-02-12T02:10:39.080Z,0.30
2019-02-12T02:13:05.413Z,0.60
2019-02-12T02:15:31.644Z,0.40
2019-02-12T02:17:57.887Z,0.50
2019-02-12T02:20:24.119Z,0.30
2019-02-12T02:22:50.361Z,0.20
2019-02-12T02:25:16.603Z,0.43
2019-02-12T02:27:42.860Z,0.30
2019-02-12T02:33:23.067Z,0.17
2019-02-12T02:35:49.298Z,0.30
2019-02-12T02:38:15.556Z,0.40
2019-02-12T02:40:41.819Z,0.50
2019-02-12T02:43:08.058Z,0.40
2019-02-12T02:45:34.292Z,0.53
2019-02-12T02:48:00.562Z,0.73
2019-02-12T02:50:26.804Z,0.20
2019-02-12T02:52:53.055Z,0.30
2019-02-12T02:55:19.301Z,0.27
2019-02-12T02:57:45.547Z,0.30
2019-02-12T03:00:11.887Z,0.30
2019-02-12T03:02:38.145Z,0.40
2019-02-12T03:05:45.678Z,0.37
2019-02-12T03:08:11.931Z,0.40
2019-02-12T03:10:38.155Z,0.30
2019-02-12T03:13:04.411Z,0.17
2019-02-12T03:15:30.676Z,0.40
2019-02-12T03:17:56.913Z,0.23
2019-02-12T03:20:23.143Z,0.20
2019-02-12T03:22:49.375Z,0.23
2019-02-12T03:25:15.619Z,0.40
2019-02-12T03:27:41.861Z,0.40
2019-02-12T03:33:08.777Z,0.37
2019-02-12T03:35:35.012Z,0.33
2019-02-12T03:38:01.304Z,0.40
2019-02-12T03:40:27.586Z,0.47
2019-02-12T03:42:53.846Z,0.60
2019-02-12T03:45:20.109Z,0.30
2019-02-12T03:47:46.345Z,0.80
2019-02-12T03:50:12.590Z,0.40
2019-02-12T03:52:38.824Z,0.30
2019-02-12T03:55:46.382Z,0.20
2019-02-12T03:58:12.617Z,0.33
2019-02-12T04:00:38.864Z,0.20
2019-02-12T04:06:18.797Z,0.40
2019-02-12T04:08:45.028Z,0.50
2019-02-12T04:11:11.281Z,0.40
2019-02-12T04:13:37.518Z,0.20
2019-02-12T04:16:03.759Z,0.20
2019-02-12T04:18:29.996Z,0.50
2019-02-12T04:20:56.241Z,0.30
2019-02-12T04:23:22.485Z,0.20
2019-02-12T04:25:48.730Z,0.20
2019-02-12T04:31:05.581Z,0.20
2019-02-12T04:33:31.816Z,0.23
2019-02-12T04:35:58.069Z,0.20
2019-02-12T04:38:24.308Z,0.40
2019-02-12T04:40:50.561Z,0.50
2019-02-12T04:43:16.804Z,0.40
2019-02-12T04:45:43.056Z,0.27
2019-02-12T04:48:09.294Z,0.30
2019-02-12T04:50:35.532Z,0.20
2019-02-12T04:53:01.778Z,0.30
2019-02-12T04:55:28.011Z,0.20
2019-02-12T04:57:54.255Z,0.20
2019-02-12T05:00:20.506Z,0.30
2019-02-12T05:02:46.736Z,0.20
2019-02-12T05:05:13.102Z,0.00
2019-02-12T05:07:39.410Z,0.30
2019-02-12T05:10:47.024Z,0.30
2019-02-12T05:13:13.256Z,0.50
2019-02-12T05:15:39.496Z,0.30
2019-02-12T05:18:05.744Z,0.40
2019-02-12T05:20:31.988Z,0.60
2019-02-12T05:22:58.237Z,0.20
2019-02-12T05:25:24.464Z,0.27
2019-02-12T05:27:50.733Z,0.60
2019-02-12T05:30:16.963Z,0.23
2019-02-12T05:32:43.216Z,0.30
2019-02-12T05:35:09.439Z,0.47
2019-02-12T05:37:35.680Z,0.40
2019-02-12T05:43:09.489Z,0.10
2019-02-12T05:45:35.720Z,0.30
2019-02-12T05:48:01.974Z,0.20
2019-02-12T05:50:28.208Z,0.20
2019-02-12T05:52:55.165Z,0.13
2019-02-12T05:57:50.656Z,0.23
2019-02-12T06:00:58.225Z,0.10
2019-02-12T06:03:24.478Z,0.10
2019-02-12T06:05:50.715Z,0.20
2019-02-12T06:08:16.988Z,0.20
2019-02-12T06:10:43.228Z,0.30
2019-02-12T06:13:09.477Z,0.40
2019-02-12T06:15:35.721Z,0.23
2019-02-12T06:18:01.979Z,0.57
2019-02-12T06:20:28.220Z,0.30
2019-02-12T06:23:03.046Z,0.30
2019-02-12T06:25:22.629Z,0.47
2019-02-12T06:27:48.887Z,0.07
2019-02-12T06:30:15.151Z,0.30
2019-02-12T06:32:41.390Z,0.30
2019-02-12T06:38:21.698Z,0.17
2019-02-12T06:40:47.941Z,0.13
2019-02-12T06:43:14.243Z,0.20
2019-02-12T06:45:40.477Z,0.20
2019-02-12T06:48:06.705Z,0.40
2019-02-12T06:50:32.964Z,0.40
2019-02-12T06:52:59.212Z,0.20
2019-02-12T06:55:25.439Z,1.17
2019-02-12T06:57:51.690Z,0.30
2019-02-12T07:00:17.925Z,0.30
2019-02-12T07:03:23.669Z,0.20
2019-02-12T07:12:30.493Z,0.10
2019-02-12T07:15:38.059Z,0.40
2019-02-12T07:21:57.248Z,0.10
2019-02-12T07:25:03.016Z,0.20
2019-02-12T07:28:08.855Z,0.20
2019-02-12T07:31:14.609Z,0.20
2019-02-12T07:37:21.189Z,0.30
2019-02-12T07:40:26.928Z,0.20
2019-02-12T07:43:34.481Z,0.23
2019-02-12T07:46:40.234Z,0.30
2019-02-12T07:49:47.785Z,0.23
2019-02-12T07:55:36.829Z,0.20
2019-02-12T07:58:44.381Z,0.20
2019-02-12T08:07:50.901Z,0.20
2019-02-12T08:10:56.658Z,0.37
2019-02-12T08:26:22.193Z,0.20
2019-02-12T08:32:29.762Z,0.27
2019-02-12T08:35:35.691Z,0.20
2019-02-12T08:38:41.423Z,0.30
2019-02-12T08:41:47.172Z,0.30
2019-02-12T08:44:52.902Z,0.27
2019-02-12T08:47:58.652Z,0.30
2019-02-12T08:51:04.396Z,0.20
2019-02-12T08:54:10.129Z,0.37
2019-02-12T08:57:15.884Z,0.30
2019-02-12T09:00:23.436Z,0.47
2019-02-12T09:03:29.205Z,0.30
2019-02-12T09:06:34.952Z,0.37
2019-02-12T09:09:40.708Z,0.40
2019-02-12T09:22:01.194Z,1.00
2019-02-12T09:25:06.933Z,0.43
2019-02-12T09:28:14.485Z,0.50
2019-02-12T09:31:22.057Z,0.40
2019-02-12T09:40:42.391Z,0.40
2019-02-12T09:49:48.906Z,0.50
2019-02-12T09:52:54.669Z,1.23
2019-02-12T09:56:00.422Z,0.60
2019-02-12T09:59:06.185Z,0.47
2019-02-12T10:01:53.968Z,0.70
2019-02-12T10:04:59.719Z,1.00
2019-02-12T10:08:05.461Z,0.70
2019-02-12T10:11:13.022Z,0.50
2019-02-12T10:14:18.809Z,0.57
2019-02-12T10:17:26.383Z,0.73
2019-02-12T10:20:32.143Z,0.83
2019-02-12T10:23:37.885Z,0.40
2019-02-12T10:26:25.692Z,1.20
2019-02-12T10:31:51.849Z,0.60
2019-02-12T10:34:18.071Z,1.03
2019-02-12T10:36:44.331Z,0.70
2019-02-12T10:42:18.051Z,0.80
2019-02-12T10:44:44.302Z,0.70
2019-02-12T10:47:10.556Z,0.90
2019-02-12T10:49:36.797Z,0.80
2019-02-12T10:52:03.053Z,0.70
2019-02-12T10:54:29.304Z,0.90
2019-02-12T10:56:55.561Z,0.50
2019-02-12T10:59:21.802Z,0.93
2019-02-12T11:01:48.071Z,0.53
2019-02-12T11:04:14.292Z,0.50
2019-02-12T11:06:40.545Z,0.73
2019-02-12T11:09:28.340Z,0.40
2019-02-12T11:11:54.593Z,0.70
2019-02-12T11:14:20.836Z,0.70
2019-02-12T11:16:47.092Z,0.80
2019-02-12T11:19:13.344Z,0.80
2019-02-12T11:21:39.581Z,0.70
2019-02-12T11:24:05.827Z,0.43
2019-02-12T11:26:32.060Z,0.70
2019-02-12T11:28:58.306Z,0.60
2019-02-12T11:31:24.533Z,0.60
2019-02-12T11:33:50.774Z,1.10
2019-02-12T11:36:17.001Z,0.67
2019-02-12T11:38:43.235Z,0.77
2019-02-12T11:41:09.470Z,0.57
2019-02-12T11:43:35.709Z,0.50
2019-02-12T11:46:01.934Z,0.67
2019-02-12T11:48:28.176Z,0.73
2019-02-12T11:50:54.395Z,0.50
2019-02-12T11:53:20.646Z,0.97
2019-02-12T11:55:46.871Z,0.50
2019-02-12T11:58:13.112Z,0.93
2019-02-12T12:03:26.948Z,0.50
2019-02-12T12:05:53.179Z,2.00
2019-02-12T12:08:19.419Z,0.63
2019-02-12T12:10:45.664Z,0.50
2019-02-12T12:13:11.905Z,0.70
2019-02-12T12:15:38.151Z,0.40
2019-02-12T12:18:04.388Z,0.50
2019-02-12T12:20:30.620Z,0.50
2019-02-12T12:22:56.839Z,0.40
2019-02-12T12:25:23.092Z,0.60
2019-02-12T12:27:49.332Z,0.70
2019-02-12T12:30:15.577Z,0.80
2019-02-12T12:32:42.011Z,0.73
2019-02-12T12:35:49.560Z,0.73
2019-02-12T12:38:15.809Z,1.30
2019-02-12T12:40:42.059Z,0.40
2019-02-12T12:43:08.296Z,0.57
2019-02-12T12:45:34.558Z,0.80
2019-02-12T12:48:00.793Z,0.80
2019-02-12T12:50:27.085Z,0.60
2019-02-12T12:52:53.311Z,0.33
2019-02-12T12:55:19.567Z,0.40
2019-02-12T12:57:45.799Z,0.53
2019-02-12T13:00:53.335Z,0.50
2019-02-12T13:03:19.600Z,0.60
2019-02-12T13:05:45.840Z,0.60
2019-02-12T13:08:12.088Z,0.70
2019-02-12T13:10:38.332Z,0.47
2019-02-12T13:13:04.875Z,0.50
2019-02-12T13:15:32.760Z,0.57
2019-02-12T13:17:59.003Z,0.60
2019-02-12T13:20:25.266Z,0.77
2019-02-12T13:22:51.494Z,0.50
2019-02-12T13:25:17.746Z,0.73
2019-02-12T13:27:43.985Z,0.47
2019-02-12T13:30:51.568Z,0.90
2019-02-12T13:33:17.800Z,0.60
2019-02-12T13:35:44.055Z,0.40
2019-02-12T13:38:10.291Z,0.50
2019-02-12T13:40:36.557Z,0.70
2019-02-12T13:43:02.897Z,0.50
2019-02-12T13:45:29.143Z,0.40
2019-02-12T13:47:55.386Z,0.47
2019-02-12T13:50:21.644Z,0.50
2019-02-12T13:52:47.890Z,0.70
2019-02-12T13:55:17.301Z,0.47
2019-02-12T14:03:11.373Z,0.40
2019-02-12T14:05:37.673Z,0.60
2019-02-12T14:08:04.746Z,0.73
2019-02-12T14:10:32.038Z,0.70
2019-02-12T14:12:58.291Z,0.97
2019-02-12T14:15:24.544Z,1.07
2019-02-12T14:17:50.807Z,0.37
2019-02-12T14:20:17.160Z,0.93
2019-02-12T14:22:43.416Z,0.53
2019-02-12T14:28:22.971Z,0.60
2019-02-12T14:30:49.232Z,0.77
2019-02-12T14:33:15.487Z,0.77
2019-02-12T14:35:41.737Z,0.80
2019-02-12T14:38:07.985Z,0.80
2019-02-12T14:40:34.232Z,0.80
2019-02-12T14:43:00.504Z,0.80
2019-02-12T14:45:26.739Z,0.70
2019-02-12T14:47:52.984Z,0.60
2019-02-12T14:51:00.833Z,0.53
2019-02-12T14:53:27.086Z,0.87
2019-02-12T14:55:53.319Z,0.70
2019-02-12T14:58:19.577Z,0.70
2019-02-12T15:00:45.818Z,0.90
2019-02-12T15:03:12.095Z,0.53
2019-02-12T15:05:38.336Z,0.57
2019-02-12T15:08:04.605Z,0.47
2019-02-12T15:10:30.864Z,0.50
2019-02-12T15:12:57.119Z,0.67
2019-02-12T15:15:23.384Z,0.80
2019-02-12T15:17:49.644Z,0.50
2019-02-12T15:20:15.885Z,0.60
2019-02-12T15:22:42.134Z,0.70
2019-02-12T15:25:49.715Z,0.70
2019-02-12T15:28:15.967Z,0.60
2019-02-12T15:30:42.241Z,0.60
2019-02-12T15:33:08.489Z,0.53
2019-02-12T15:35:34.761Z,0.60
2019-02-12T15:38:01.018Z,0.67
2019-02-12T15:40:27.263Z,0.73
2019-02-12T15:42:53.518Z,0.97
2019-02-12T15:46:01.061Z,0.73
2019-02-12T15:48:27.345Z,1.00
2019-02-12T15:50:53.587Z,0.77
2019-02-12T15:53:19.850Z,0.60
2019-02-12T15:55:51.415Z,0.83
2019-02-12T15:58:14.321Z,0.60
2019-02-12T16:00:41.529Z,0.50
2019-02-12T16:03:08.893Z,0.80
2019-02-12T16:05:35.126Z,0.60
2019-02-12T16:08:01.365Z,0.77
2019-02-12T16:10:27.631Z,0.60
2019-02-12T16:12:53.879Z,0.40
2019-02-12T16:15:23.860Z,0.50
2019-02-12T16:17:48.326Z,0.70
2019-02-12T16:20:14.567Z,0.60
2019-02-12T16:22:40.857Z,0.90
2019-02-12T16:25:48.420Z,0.87
2019-02-12T16:28:14.677Z,0.70
2019-02-12T16:30:40.935Z,0.90
2019-02-12T16:33:07.172Z,1.00
2019-02-12T16:35:33.428Z,0.90
2019-02-12T16:37:59.674Z,0.60
2019-02-12T16:40:25.926Z,0.60
2019-02-12T16:42:52.171Z,0.70
2019-02-12T16:45:59.716Z,0.77
2019-02-12T16:48:25.981Z,0.70
2019-02-12T16:50:52.236Z,0.50
2019-02-12T16:53:18.479Z,0.50
2019-02-12T16:55:44.742Z,0.93
2019-02-12T16:58:10.996Z,0.70
2019-02-12T17:00:37.281Z,0.80
2019-02-12T17:03:03.524Z,1.43
2019-02-12T17:05:29.766Z,0.50
2019-02-12T17:07:56.032Z,0.70
2019-02-12T17:10:22.278Z,0.50
2019-02-12T17:12:48.517Z,0.47
2019-02-12T17:15:14.785Z,0.60
2019-02-12T17:17:41.025Z,0.60
2019-02-12T17:20:27.018Z,0.93
2019-02-12T17:22:53.276Z,0.37
2019-02-12T17:25:19.556Z,2.10
2019-02-12T17:27:45.891Z,0.97
2019-02-12T17:30:31.902Z,0.90
2019-02-12T17:32:58.158Z,0.70
2019-02-12T17:35:24.406Z,0.70
2019-02-12T17:37:50.645Z,0.63
2019-02-12T17:40:58.199Z,0.53
2019-02-12T17:43:24.455Z,0.80
2019-02-12T17:45:50.710Z,0.53
2019-02-12T17:48:16.941Z,0.87
2019-02-12T17:50:43.219Z,0.80
2019-02-12T17:55:57.064Z,0.63
2019-02-12T17:58:23.324Z,0.80
2019-02-12T18:00:49.617Z,1.10
2019-02-12T18:03:15.857Z,0.77
2019-02-12T18:05:42.111Z,0.97
2019-02-12T18:08:08.365Z,0.90
2019-02-12T18:10:34.601Z,0.53
2019-02-12T18:13:00.873Z,0.80
2019-02-12T18:15:27.103Z,1.03
2019-02-12T18:17:53.367Z,0.93
2019-02-12T18:20:26.367Z,1.20
2019-02-12T18:22:47.804Z,1.07
2019-02-12T18:25:14.057Z,1.10
2019-02-12T18:27:40.409Z,1.50
2019-02-12T18:30:28.203Z,1.43
2019-02-12T18:32:54.493Z,0.97
2019-02-12T18:38:34.671Z,0.63
2019-02-12T18:41:00.906Z,0.83
2019-02-12T18:43:27.156Z,0.80
2019-02-12T18:45:53.391Z,0.90
2019-02-12T18:48:19.653Z,0.60
2019-02-12T18:50:45.897Z,1.00
2019-02-12T18:53:12.155Z,0.70
2019-02-12T18:55:38.389Z,0.80
2019-02-12T18:58:04.660Z,0.70
2019-02-12T19:00:30.893Z,0.80
2019-02-12T19:02:57.148Z,1.87
2019-02-12T19:05:23.417Z,1.40
2019-02-12T19:07:49.660Z,1.30
2019-02-12T19:10:57.222Z,0.93
2019-02-12T19:13:23.485Z,0.90
2019-02-12T19:19:03.506Z,0.80
2019-02-12T19:21:29.742Z,0.63
2019-02-12T19:23:55.987Z,0.90
2019-02-12T19:26:22.232Z,1.77
2019-02-12T19:28:48.494Z,1.43
2019-02-12T19:31:14.728Z,1.40
2019-02-12T19:33:40.977Z,1.50
2019-02-12T19:36:07.213Z,1.73
2019-02-12T19:38:33.465Z,1.37
2019-02-12T19:40:59.696Z,1.37
2019-02-12T19:43:25.956Z,2.50
2019-02-12T19:45:52.199Z,1.63
2019-02-12T19:48:18.448Z,1.70
2019-02-12T19:50:44.683Z,1.30
2019-02-12T19:53:10.941Z,1.33
2019-02-12T19:55:37.174Z,1.23
2019-02-12T19:58:03.429Z,2.17
2019-02-12T20:00:29.679Z,1.70
2019-02-12T20:02:55.920Z,0.83
2019-02-12T20:05:22.173Z,0.90
2019-02-12T20:07:48.409Z,1.20
2019-02-12T20:10:55.956Z,0.90
2019-02-12T20:13:22.209Z,0.90
2019-02-12T20:15:48.467Z,2.57
2019-02-12T20:18:14.716Z,14.27
2019-02-12T20:20:40.968Z,7.70
2019-02-12T20:23:07.219Z,6.00
2019-02-12T20:25:33.475Z,7.33
2019-02-12T20:27:59.717Z,6.83
2019-02-12T20:30:25.972Z,5.93
2019-02-12T20:32:52.208Z,2.20
2019-02-12T20:35:59.762Z,3.07
2019-02-12T20:38:26.000Z,2.10
2019-02-12T20:40:52.256Z,2.37
2019-02-12T20:43:18.491Z,1.17
2019-02-12T20:45:44.754Z,1.00
2019-02-12T20:48:10.997Z,1.20
2019-02-12T20:50:37.265Z,1.10
2019-02-12T20:53:03.499Z,0.80
2019-02-12T20:55:29.741Z,0.80
2019-02-12T20:57:55.983Z,0.50
2019-02-12T21:01:03.565Z,0.50
2019-02-12T21:03:29.809Z,0.80
2019-02-12T21:05:56.055Z,0.57
2019-02-12T21:08:23.309Z,0.83
2019-02-12T21:10:49.562Z,0.50
2019-02-12T21:13:15.800Z,0.90
2019-02-12T21:15:42.051Z,0.70
2019-02-12T21:18:08.287Z,0.60
2019-02-12T21:20:34.570Z,0.60
2019-02-12T21:23:00.771Z,0.33
2019-02-12T21:25:27.029Z,0.30
2019-02-12T21:27:53.419Z,0.60
2019-02-12T21:31:00.985Z,0.63
2019-02-12T21:33:27.234Z,0.63
2019-02-12T21:35:53.487Z,0.63
2019-02-12T21:41:07.347Z,0.83
2019-02-12T21:43:33.589Z,0.57
2019-02-12T21:45:59.856Z,0.47
2019-02-12T21:48:26.089Z,0.60
2019-02-12T21:50:52.342Z,0.20
2019-02-12T21:53:18.586Z,0.40
2019-02-12T21:55:44.819Z,0.47
2019-02-12T21:58:11.077Z,0.40
2019-02-12T22:00:37.310Z,0.30
2019-02-12T22:03:03.557Z,0.40
2019-02-12T22:05:29.790Z,0.40
2019-02-12T22:07:56.036Z,0.30
2019-02-12T22:13:36.124Z,0.47
2019-02-12T22:16:02.365Z,0.20
2019-02-12T22:18:28.618Z,0.47
2019-02-12T22:20:54.856Z,0.50
2019-02-12T22:23:21.103Z,0.50
2019-02-12T22:25:47.340Z,0.63
2019-02-12T22:28:20.904Z,0.50
2019-02-12T22:30:47.141Z,0.50
2019-02-12T22:33:13.388Z,0.40
2019-02-12T22:35:39.623Z,0.40
2019-02-12T22:38:05.877Z,0.60
2019-02-12T22:40:32.125Z,0.23
2019-02-12T22:42:58.370Z,0.47
2019-02-12T22:48:38.079Z,0.43
2019-02-12T22:51:04.320Z,0.50
2019-02-12T22:53:30.581Z,0.50
2019-02-12T22:55:56.818Z,0.17
2019-02-12T22:58:23.072Z,0.20
2019-02-12T23:01:10.274Z,0.37
2019-02-12T23:03:36.548Z,0.40
2019-02-12T23:06:02.823Z,0.47
2019-02-12T23:08:29.057Z,0.20
2019-02-12T23:10:55.304Z,0.60
2019-02-12T23:13:21.556Z,0.53
2019-02-12T23:15:47.793Z,0.17
2019-02-12T23:18:14.051Z,0.20
2019-02-12T23:20:40.296Z,0.40
2019-02-12T23:23:06.819Z,0.50
2019-02-12T23:25:33.078Z,0.20
2019-02-12T23:27:59.317Z,0.30
2019-02-12T23:30:25.579Z,0.43
2019-02-12T23:32:51.915Z,0.50
2019-02-12T23:35:18.167Z,0.30
2019-02-12T23:37:44.402Z,0.30
2019-02-12T23:40:10.650Z,0.40
2019-02-12T23:42:36.895Z,0.40
2019-02-12T23:45:44.473Z,0.40
2019-02-12T23:48:10.725Z,0.47
2019-02-12T23:50:36.971Z,0.50
2019-02-12T23:53:03.220Z,0.50
2019-02-12T23:55:29.479Z,0.70
2019-02-12T23:57:55.723Z,1.10
